createdAt,value
2023-04-16T00:01:18.088Z,6.00
2023-04-16T00:03:46.940Z,4.80
2023-04-16T00:06:15.303Z,5.10
2023-04-16T00:08:43.659Z,4.87
2023-04-16T00:11:13.203Z,4.90
2023-04-16T00:13:41.414Z,4.97
2023-04-16T00:16:09.649Z,5.33
2023-04-16T00:18:37.685Z,6.00
2023-04-16T00:21:05.964Z,5.03
2023-04-16T00:23:33.917Z,5.20
2023-04-16T00:26:01.948Z,5.23
2023-04-16T00:28:31.437Z,5.00
2023-04-16T00:31:02.345Z,5.30
2023-04-16T00:33:31.030Z,5.40
2023-04-16T00:35:59.026Z,5.70
2023-04-16T00:38:29.984Z,5.53
2023-04-16T00:40:58.885Z,5.37
2023-04-16T00:43:28.312Z,4.97
2023-04-16T00:45:58.556Z,5.53
2023-04-16T00:48:27.952Z,5.40
2023-04-16T00:50:56.583Z,5.80
2023-04-16T00:53:25.415Z,5.47
2023-04-16T00:55:53.576Z,5.50
2023-04-16T00:58:21.915Z,5.50
2023-04-16T01:00:49.886Z,5.97
2023-04-16T01:03:19.969Z,6.57
2023-04-16T01:05:49.442Z,5.87
2023-04-16T01:08:19.058Z,6.00
2023-04-16T01:10:47.118Z,5.83
2023-04-16T01:13:15.448Z,5.73
2023-04-16T01:15:43.466Z,5.33
2023-04-16T01:18:19.399Z,6.07
2023-04-16T01:20:49.570Z,5.77
2023-04-16T01:23:18.608Z,6.17
2023-04-16T01:25:46.720Z,6.27
2023-04-16T01:28:15.029Z,6.73
2023-04-16T01:30:43.023Z,5.77
2023-04-16T01:33:11.944Z,6.10
2023-04-16T01:35:41.017Z,5.97
2023-04-16T01:38:11.590Z,6.30
2023-04-16T01:40:40.122Z,6.70
2023-04-16T01:43:08.107Z,6.37
2023-04-16T01:45:37.701Z,6.37
2023-04-16T01:48:06.190Z,6.13
2023-04-16T01:50:34.951Z,6.43
2023-04-16T01:53:05.120Z,6.20
2023-04-16T01:55:35.298Z,6.10
2023-04-16T01:58:03.312Z,6.60
2023-04-16T02:00:31.427Z,6.40
2023-04-16T02:02:59.620Z,6.80
2023-04-16T02:05:27.810Z,6.10
2023-04-16T02:07:55.954Z,6.40
2023-04-16T02:10:24.094Z,6.43
2023-04-16T02:12:53.428Z,6.97
2023-04-16T02:15:21.421Z,6.30
2023-04-16T02:17:53.886Z,6.27
2023-04-16T02:20:22.094Z,6.57
2023-04-16T02:22:50.164Z,6.67
2023-04-16T02:25:18.261Z,6.73
2023-04-16T02:27:46.248Z,6.20
2023-04-16T02:30:15.645Z,6.40
2023-04-16T02:32:43.669Z,5.80
2023-04-16T02:35:11.768Z,6.73
2023-04-16T02:37:40.855Z,5.90
2023-04-16T02:40:10.233Z,6.77
2023-04-16T02:42:38.324Z,6.77
2023-04-16T02:45:07.633Z,6.03
2023-04-16T02:47:37.445Z,6.90
2023-04-16T02:50:06.384Z,6.90
2023-04-16T02:52:34.415Z,6.20
2023-04-16T02:55:02.443Z,6.90
2023-04-16T02:57:30.550Z,6.80
2023-04-16T02:59:58.666Z,6.53
2023-04-16T03:02:27.250Z,6.60
2023-04-16T03:04:56.819Z,6.20
2023-04-16T03:07:24.858Z,6.30
2023-04-16T03:09:52.899Z,6.00
2023-04-16T03:12:21.054Z,6.33
2023-04-16T03:14:49.024Z,6.33
2023-04-16T03:17:17.138Z,6.00
2023-04-16T03:19:45.423Z,5.83
2023-04-16T03:22:14.804Z,5.60
2023-04-16T03:24:42.809Z,5.37
2023-04-16T03:27:10.806Z,6.33
2023-04-16T03:29:38.885Z,5.70
2023-04-16T03:32:07.036Z,5.13
2023-04-16T03:34:36.815Z,6.33
2023-04-16T03:37:06.137Z,5.80
2023-04-16T03:39:37.305Z,6.27
2023-04-16T03:42:05.682Z,5.83
2023-04-16T03:44:33.651Z,5.37
2023-04-16T03:47:02.729Z,5.90
2023-04-16T03:49:30.673Z,6.03
2023-04-16T03:51:58.753Z,5.53
2023-04-16T03:54:26.832Z,5.83
2023-04-16T03:56:57.239Z,5.93
2023-04-16T03:59:25.260Z,6.00
2023-04-16T04:01:53.534Z,6.13
2023-04-16T04:04:21.658Z,5.50
2023-04-16T04:06:49.697Z,6.07
2023-04-16T04:09:17.659Z,5.53
2023-04-16T04:11:45.688Z,6.17
2023-04-16T04:14:15.254Z,5.50
2023-04-16T04:16:43.293Z,6.33
2023-04-16T04:19:11.648Z,5.90
2023-04-16T04:21:40.534Z,5.83
2023-04-16T04:24:08.507Z,5.40
2023-04-16T04:26:36.671Z,6.20
2023-04-16T04:29:04.757Z,6.13
2023-04-16T04:31:34.226Z,5.47
2023-04-16T04:34:02.200Z,5.70
2023-04-16T04:36:32.348Z,5.97
2023-04-16T04:39:00.682Z,6.20
2023-04-16T04:41:28.629Z,6.30
2023-04-16T04:43:56.612Z,6.20
2023-04-16T04:46:24.824Z,5.97
2023-04-16T04:48:54.293Z,5.50
2023-04-16T04:51:22.348Z,6.73
2023-04-16T04:53:50.576Z,5.70
2023-04-16T04:56:18.704Z,5.60
2023-04-16T04:58:46.695Z,5.47
2023-04-16T05:01:14.708Z,5.80
2023-04-16T05:03:42.816Z,6.40
2023-04-16T05:06:12.251Z,6.27
2023-04-16T05:08:40.483Z,6.03
2023-04-16T05:11:08.459Z,5.63
2023-04-16T05:13:36.495Z,5.53
2023-04-16T05:16:04.666Z,5.90
2023-04-16T05:18:33.450Z,5.70
2023-04-16T05:21:01.508Z,5.50
2023-04-16T05:23:30.915Z,5.27
2023-04-16T05:25:58.945Z,6.30
2023-04-16T05:28:27.091Z,5.60
2023-04-16T05:30:55.210Z,5.47
2023-04-16T05:33:23.377Z,4.73
2023-04-16T05:35:51.822Z,5.50
2023-04-16T05:38:20.001Z,5.50
2023-04-16T05:40:49.427Z,5.07
2023-04-16T05:43:18.576Z,5.10
2023-04-16T05:45:46.561Z,5.30
2023-04-16T05:48:14.903Z,5.37
2023-04-16T05:50:42.924Z,4.97
2023-04-16T05:53:11.048Z,5.73
2023-04-16T05:55:39.013Z,5.27
2023-04-16T05:58:08.412Z,5.53
2023-04-16T06:00:36.701Z,4.83
2023-04-16T06:03:04.944Z,5.20
2023-04-16T06:05:33.228Z,4.70
2023-04-16T06:08:01.524Z,4.60
2023-04-16T06:10:29.673Z,4.87
2023-04-16T06:12:57.870Z,5.10
2023-04-16T06:15:27.573Z,4.90
2023-04-16T06:17:55.875Z,4.90
2023-04-16T06:20:24.283Z,5.50
2023-04-16T06:22:52.317Z,5.10
2023-04-16T06:25:20.309Z,5.23
2023-04-16T06:27:48.564Z,4.90
2023-04-16T06:30:17.504Z,4.57
2023-04-16T06:32:47.176Z,5.20
2023-04-16T06:35:15.261Z,5.13
2023-04-16T06:37:43.310Z,4.87
2023-04-16T06:40:12.557Z,4.70
2023-04-16T06:42:40.980Z,4.50
2023-04-16T06:45:10.671Z,4.63
2023-04-16T06:47:38.735Z,5.03
2023-04-16T06:50:09.114Z,4.97
2023-04-16T06:52:37.131Z,4.70
2023-04-16T06:55:05.741Z,4.63
2023-04-16T06:57:35.637Z,4.73
2023-04-16T07:00:05.637Z,4.43
2023-04-16T07:02:33.874Z,5.10
2023-04-16T07:05:01.853Z,4.43
2023-04-16T07:07:31.518Z,5.17
2023-04-16T07:10:00.567Z,4.97
2023-04-16T07:12:28.861Z,4.77
2023-04-16T07:14:56.892Z,4.87
2023-04-16T07:17:25.226Z,5.90
2023-04-16T07:19:53.466Z,5.40
2023-04-16T07:22:21.876Z,5.30
2023-04-16T07:24:51.308Z,5.17
2023-04-16T07:27:19.469Z,5.00
2023-04-16T07:29:47.454Z,5.50
2023-04-16T07:32:15.956Z,5.10
2023-04-16T07:34:44.066Z,5.87
2023-04-16T07:37:12.085Z,5.60
2023-04-16T07:39:40.099Z,5.80
2023-04-16T07:42:09.460Z,6.03
2023-04-16T07:44:37.482Z,5.80
2023-04-16T07:47:05.875Z,5.77
2023-04-16T07:49:33.991Z,6.00
2023-04-16T07:52:02.236Z,6.33
2023-04-16T07:54:30.220Z,6.57
2023-04-16T07:56:58.205Z,6.80
2023-04-16T07:59:27.895Z,6.90
2023-04-16T08:01:56.414Z,5.97
2023-04-16T08:04:26.275Z,6.63
2023-04-16T08:06:55.730Z,6.30
2023-04-16T08:09:25.055Z,6.50
2023-04-16T08:11:53.091Z,6.57
2023-04-16T08:14:21.848Z,7.20
2023-04-16T08:16:51.452Z,7.43
2023-04-16T08:19:19.524Z,8.83
2023-04-16T08:21:48.118Z,8.90
2023-04-16T08:24:16.144Z,8.70
2023-04-16T08:26:44.272Z,9.27
2023-04-16T08:29:12.508Z,8.97
2023-04-16T08:31:40.709Z,9.27
2023-04-16T08:34:11.424Z,8.83
2023-04-16T08:36:39.565Z,8.60
2023-04-16T08:39:07.631Z,8.70
2023-04-16T08:41:38.025Z,8.43
2023-04-16T08:44:10.254Z,8.00
2023-04-16T08:46:39.319Z,7.20
2023-04-16T08:49:09.897Z,6.50
2023-04-16T08:51:41.054Z,6.53
2023-04-16T08:54:13.681Z,7.13
2023-04-16T08:56:43.559Z,7.00
2023-04-16T08:59:12.233Z,6.77
2023-04-16T09:01:42.083Z,7.27
2023-04-16T09:04:16.199Z,7.13
2023-04-16T09:06:45.411Z,7.13
2023-04-16T09:09:15.491Z,7.03
2023-04-16T09:11:44.546Z,7.63
2023-04-16T09:14:13.634Z,7.10
2023-04-16T09:16:42.888Z,7.30
2023-04-16T09:19:11.249Z,7.80
2023-04-16T09:21:42.020Z,6.87
2023-04-16T09:24:10.749Z,7.23
2023-04-16T09:26:38.862Z,6.97
2023-04-16T09:29:06.828Z,6.50
2023-04-16T09:31:34.851Z,6.83
2023-04-16T09:34:03.907Z,6.20
2023-04-16T09:36:32.566Z,6.73
2023-04-16T09:39:02.669Z,5.77
2023-04-16T09:41:33.288Z,6.40
2023-04-16T09:44:04.182Z,6.87
2023-04-16T09:46:35.413Z,6.40
2023-04-16T09:49:07.003Z,5.93
2023-04-16T09:51:38.603Z,5.33
2023-04-16T09:54:08.119Z,5.53
2023-04-16T09:56:41.236Z,5.17
2023-04-16T09:59:10.653Z,5.63
2023-04-16T10:01:39.121Z,5.53
2023-04-16T10:04:08.340Z,5.80
2023-04-16T10:06:36.539Z,5.03
2023-04-16T10:09:11.074Z,5.40
2023-04-16T10:11:39.414Z,5.73
2023-04-16T10:14:07.397Z,5.13
2023-04-16T10:16:36.202Z,4.97
2023-04-16T10:19:04.524Z,4.77
2023-04-16T10:21:34.442Z,5.00
2023-04-16T10:24:03.067Z,4.83
2023-04-16T10:26:32.630Z,5.53
2023-04-16T10:29:01.145Z,5.00
2023-04-16T10:31:30.437Z,5.07
2023-04-16T10:34:00.734Z,4.60
2023-04-16T10:36:29.058Z,5.90
2023-04-16T10:39:00.167Z,5.87
2023-04-16T10:41:28.604Z,5.80
2023-04-16T10:44:09.518Z,5.43
2023-04-16T10:46:40.219Z,5.73
2023-04-16T10:49:15.979Z,5.53
2023-04-16T10:51:46.024Z,5.57
2023-04-16T10:54:27.441Z,5.90
2023-04-16T10:56:58.037Z,5.87
2023-04-16T10:59:33.372Z,6.03
2023-04-16T11:02:02.987Z,6.10
2023-04-16T11:04:36.982Z,6.00
2023-04-16T11:07:07.889Z,6.23
2023-04-16T11:10:04.883Z,5.70
2023-04-16T11:12:37.869Z,5.50
2023-04-16T11:15:09.275Z,5.87
2023-04-16T11:17:40.516Z,5.40
2023-04-16T11:20:17.473Z,5.87
2023-04-16T11:22:48.386Z,5.20
2023-04-16T11:25:21.010Z,5.50
2023-04-16T11:27:49.330Z,4.97
2023-04-16T11:30:19.993Z,5.23
2023-04-16T11:32:48.347Z,5.23
2023-04-16T11:35:18.049Z,5.03
2023-04-16T11:37:47.012Z,5.63
2023-04-16T11:40:15.526Z,5.20
2023-04-16T11:42:44.554Z,5.07
2023-04-16T11:45:14.455Z,5.07
2023-04-16T11:47:51.684Z,5.40
2023-04-16T11:50:21.979Z,5.50
2023-04-16T11:52:51.321Z,5.40
2023-04-16T11:55:19.701Z,6.10
2023-04-16T11:57:47.940Z,5.53
2023-04-16T12:00:16.821Z,5.97
2023-04-16T12:02:47.594Z,5.63
2023-04-16T12:05:38.906Z,5.40
2023-04-16T12:08:08.686Z,5.80
2023-04-16T12:10:38.035Z,5.17
2023-04-16T12:13:14.007Z,5.80
2023-04-16T12:15:49.123Z,5.20
2023-04-16T12:18:20.231Z,5.97
2023-04-16T12:20:48.730Z,5.67
2023-04-16T12:23:27.484Z,5.60
2023-04-16T12:25:55.903Z,5.33
2023-04-16T12:28:32.189Z,5.97
2023-04-16T12:31:00.600Z,6.13
2023-04-16T12:33:30.254Z,5.97
2023-04-16T12:35:58.668Z,6.00
2023-04-16T12:38:27.213Z,6.23
2023-04-16T12:40:57.136Z,6.33
2023-04-16T12:43:26.736Z,8.17
2023-04-16T12:45:54.807Z,6.53
2023-04-16T12:48:23.041Z,6.73
2023-04-16T12:50:54.962Z,7.70
2023-04-16T12:53:22.972Z,6.43
2023-04-16T12:55:51.009Z,7.53
2023-04-16T12:58:18.967Z,6.80
2023-04-16T13:00:47.020Z,6.03
2023-04-16T13:03:15.122Z,6.03
2023-04-16T13:05:43.393Z,6.50
2023-04-16T13:08:12.787Z,6.73
2023-04-16T13:10:40.768Z,7.30
2023-04-16T13:13:08.722Z,6.23
2023-04-16T13:15:37.046Z,7.20
2023-04-16T13:18:05.438Z,6.37
2023-04-16T13:20:34.774Z,6.20
2023-04-16T13:23:04.909Z,6.20
2023-04-16T13:25:35.038Z,6.20
2023-04-16T13:28:03.048Z,5.83
2023-04-16T13:30:31.861Z,5.80
2023-04-16T13:33:00.627Z,6.23
2023-04-16T13:35:28.816Z,5.63
2023-04-16T13:37:56.857Z,4.40
2023-04-16T13:40:24.851Z,3.83
2023-04-16T13:42:54.223Z,3.73
2023-04-16T13:45:22.194Z,3.50
2023-04-16T13:47:50.475Z,3.17
2023-04-16T13:50:18.682Z,3.17
2023-04-16T13:52:47.022Z,3.50
2023-04-16T13:55:18.056Z,3.50
2023-04-16T13:57:47.219Z,3.20
2023-04-16T14:00:18.199Z,3.60
2023-04-16T14:02:49.065Z,3.60
2023-04-16T14:05:17.349Z,3.37
2023-04-16T14:07:45.878Z,3.67
2023-04-16T14:10:14.029Z,3.37
2023-04-16T14:12:42.030Z,3.87
2023-04-16T14:15:10.694Z,3.20
2023-04-16T14:17:40.156Z,3.30
2023-04-16T14:20:09.184Z,3.33
2023-04-16T14:22:37.147Z,3.67
2023-04-16T14:25:05.870Z,3.83
2023-04-16T14:27:34.312Z,3.50
2023-04-16T14:30:02.506Z,3.57
2023-04-16T14:32:30.760Z,3.53
2023-04-16T14:35:00.309Z,3.50
2023-04-16T14:37:28.373Z,3.87
2023-04-16T14:39:56.497Z,3.43
2023-04-16T14:42:24.449Z,3.60
2023-04-16T14:44:52.542Z,3.77
2023-04-16T14:47:20.847Z,3.40
2023-04-16T14:49:48.800Z,3.70
2023-04-16T14:52:18.184Z,3.67
2023-04-16T14:54:47.790Z,3.30
2023-04-16T14:57:17.079Z,3.60
2023-04-16T14:59:45.195Z,3.87
2023-04-16T15:02:13.327Z,3.90
2023-04-16T15:04:41.496Z,3.37
2023-04-16T15:07:09.582Z,3.93
2023-04-16T15:09:38.977Z,4.00
2023-04-16T15:12:07.181Z,4.07
2023-04-16T15:14:35.314Z,4.00
2023-04-16T15:17:03.483Z,4.20
2023-04-16T15:19:31.621Z,3.50
2023-04-16T15:22:00.372Z,4.03
2023-04-16T15:24:28.699Z,3.93
2023-04-16T15:26:58.163Z,3.80
2023-04-16T15:29:26.139Z,4.13
2023-04-16T15:31:54.308Z,3.70
2023-04-16T15:34:22.621Z,3.80
2023-04-16T15:36:50.620Z,3.90
2023-04-16T15:39:18.668Z,4.10
2023-04-16T15:42:00.626Z,4.10
2023-04-16T15:44:31.973Z,3.70
2023-04-16T15:47:00.485Z,3.83
2023-04-16T15:49:28.544Z,4.07
2023-04-16T15:51:57.112Z,3.60
2023-04-16T15:54:25.400Z,3.63
2023-04-16T15:56:53.364Z,4.13
2023-04-16T15:59:21.632Z,3.70
2023-04-16T16:01:51.343Z,4.50
2023-04-16T16:04:21.627Z,4.43
2023-04-16T16:06:50.177Z,4.60
2023-04-16T16:09:19.749Z,4.83
2023-04-16T16:11:47.780Z,4.23
2023-04-16T16:14:18.550Z,4.07
2023-04-16T16:16:47.073Z,4.60
2023-04-16T16:19:18.767Z,4.40
2023-04-16T16:21:46.852Z,3.80
2023-04-16T16:24:15.560Z,4.43
2023-04-16T16:26:43.550Z,3.57
2023-04-16T16:29:11.896Z,4.90
2023-04-16T16:31:39.986Z,4.37
2023-04-16T16:34:08.072Z,4.60
2023-04-16T16:36:38.032Z,4.13
2023-04-16T16:39:06.245Z,4.50
2023-04-16T16:41:37.717Z,4.00
2023-04-16T16:44:05.957Z,4.47
2023-04-16T16:46:34.095Z,4.27
2023-04-16T16:49:04.317Z,4.80
2023-04-16T16:51:33.649Z,4.30
2023-04-16T16:54:03.041Z,4.30
2023-04-16T16:56:31.059Z,4.00
2023-04-16T16:58:59.201Z,4.27
2023-04-16T17:01:27.406Z,3.90
2023-04-16T17:03:56.206Z,3.87
2023-04-16T17:06:25.088Z,4.43
2023-04-16T17:08:53.134Z,3.67
2023-04-16T17:11:22.513Z,4.53
2023-04-16T17:13:50.610Z,4.27
2023-04-16T17:16:18.804Z,3.90
2023-04-16T17:18:46.884Z,4.63
2023-04-16T17:21:16.526Z,4.50
2023-04-16T17:23:44.945Z,4.23
2023-04-16T17:26:12.979Z,4.23
2023-04-16T17:28:42.284Z,4.73
2023-04-16T17:31:11.495Z,5.00
2023-04-16T17:33:39.709Z,4.87
2023-04-16T17:36:08.376Z,5.20
2023-04-16T17:38:36.502Z,5.10
2023-04-16T17:41:04.478Z,4.63
2023-04-16T17:43:32.405Z,4.87
2023-04-16T17:46:01.806Z,4.97
2023-04-16T17:48:29.909Z,4.37
2023-04-16T17:50:57.792Z,4.83
2023-04-16T17:53:25.878Z,4.97
2023-04-16T17:55:56.727Z,5.20
2023-04-16T17:58:26.521Z,5.07
2023-04-16T18:00:54.460Z,4.77
2023-04-16T18:03:23.880Z,4.80
2023-04-16T18:05:51.952Z,4.10
2023-04-16T18:08:20.148Z,4.07
2023-04-16T18:10:48.248Z,3.87
2023-04-16T18:13:16.191Z,4.00
2023-04-16T18:15:44.393Z,4.00
2023-04-16T18:18:12.518Z,3.97
2023-04-16T18:20:42.182Z,3.60
2023-04-16T18:23:10.377Z,4.57
2023-04-16T18:25:40.229Z,3.90
2023-04-16T18:28:08.326Z,3.77
2023-04-16T18:30:36.296Z,3.87
2023-04-16T18:35:35.363Z,4.20
2023-04-16T18:38:04.804Z,4.07
2023-04-16T18:40:35.605Z,4.27
2023-04-16T18:43:03.895Z,4.33
2023-04-16T18:45:34.133Z,4.40
2023-04-16T18:48:04.310Z,3.93
2023-04-16T18:50:32.410Z,4.00
2023-04-16T18:53:00.448Z,3.90
2023-04-16T18:55:30.209Z,3.90
2023-04-16T18:57:58.353Z,4.00
2023-04-16T19:00:26.685Z,4.20
2023-04-16T19:02:55.026Z,4.20
2023-04-16T19:05:23.235Z,3.93
2023-04-16T19:07:51.484Z,4.20
2023-04-16T19:10:19.566Z,4.37
2023-04-16T19:12:49.076Z,3.87
2023-04-16T19:15:17.569Z,4.50
2023-04-16T19:17:45.510Z,4.00
2023-04-16T19:20:13.804Z,4.33
2023-04-16T19:22:41.787Z,4.40
2023-04-16T19:25:10.868Z,3.90
2023-04-16T19:27:39.037Z,4.53
2023-04-16T19:30:10.126Z,4.43
2023-04-16T19:32:38.487Z,3.37
2023-04-16T19:35:07.487Z,4.00
2023-04-16T19:37:35.471Z,4.80
2023-04-16T19:40:06.054Z,3.77
2023-04-16T19:42:34.245Z,4.17
2023-04-16T19:45:03.108Z,3.97
2023-04-16T19:47:32.674Z,4.10
2023-04-16T19:50:00.723Z,3.60
2023-04-16T19:52:28.807Z,3.90
2023-04-16T19:54:56.885Z,3.97
2023-04-16T19:57:24.978Z,4.00
2023-04-16T19:59:55.097Z,3.90
2023-04-16T20:02:23.422Z,4.20
2023-04-16T20:04:53.341Z,3.80
2023-04-16T20:07:21.483Z,3.80
2023-04-16T20:09:49.612Z,4.30
2023-04-16T20:12:18.719Z,4.30
2023-04-16T20:14:47.380Z,3.50
2023-04-16T20:17:19.586Z,3.80
2023-04-16T20:19:49.604Z,4.03
2023-04-16T20:22:19.130Z,3.70
2023-04-16T20:24:48.220Z,4.07
2023-04-16T20:27:17.013Z,4.00
2023-04-16T20:29:45.001Z,4.10
2023-04-16T20:32:12.975Z,4.63
2023-04-16T20:34:41.072Z,4.10
2023-04-16T20:37:09.008Z,3.93
2023-04-16T20:39:40.201Z,4.27
2023-04-16T20:42:10.307Z,4.13
2023-04-16T20:44:41.342Z,4.07
2023-04-16T20:47:10.983Z,3.93
2023-04-16T20:49:40.240Z,3.67
2023-04-16T20:52:08.303Z,4.13
2023-04-16T20:54:36.477Z,3.97
2023-04-16T20:57:05.885Z,4.17
2023-04-16T20:59:34.744Z,4.30
2023-04-16T21:02:02.825Z,4.80
2023-04-16T21:04:31.235Z,4.77
2023-04-16T21:07:03.157Z,4.20
2023-04-16T21:09:31.439Z,4.60
2023-04-16T21:11:59.601Z,4.67
2023-04-16T21:14:29.127Z,5.07
2023-04-16T21:16:57.378Z,5.00
2023-04-16T21:19:25.399Z,5.20
2023-04-16T21:21:54.911Z,5.00
2023-04-16T21:24:22.999Z,4.83
2023-04-16T21:26:50.954Z,5.50
2023-04-16T21:29:19.012Z,5.50
2023-04-16T21:31:48.778Z,5.77
2023-04-16T21:34:18.891Z,5.97
2023-04-16T21:36:47.478Z,5.97
2023-04-16T21:39:17.577Z,5.80
2023-04-16T21:41:49.384Z,5.73
2023-04-16T21:44:17.465Z,5.70
2023-04-16T21:46:45.945Z,6.07
2023-04-16T21:49:15.913Z,6.17
2023-04-16T21:51:46.961Z,5.50
2023-04-16T21:54:17.898Z,5.47
2023-04-16T21:56:46.306Z,6.17
2023-04-16T21:59:14.354Z,6.00
2023-04-16T22:01:43.187Z,6.77
2023-04-16T22:04:13.518Z,6.37
2023-04-16T22:06:43.093Z,6.17
2023-04-16T22:09:11.723Z,6.47
2023-04-16T22:11:41.139Z,6.50
2023-04-16T22:14:09.355Z,6.20
2023-04-16T22:16:38.725Z,6.23
2023-04-16T22:19:07.535Z,7.37
2023-04-16T22:21:35.943Z,7.37
2023-04-16T22:24:05.722Z,6.57
2023-04-16T22:26:34.289Z,7.10
2023-04-16T22:29:03.484Z,6.93
2023-04-16T22:31:31.931Z,6.97
2023-04-16T22:34:01.526Z,7.10
2023-04-16T22:36:31.339Z,7.27
2023-04-16T22:38:59.567Z,7.67
2023-04-16T22:41:32.719Z,7.63
2023-04-16T22:44:01.068Z,8.13
2023-04-16T22:46:29.678Z,7.40
2023-04-16T22:48:58.176Z,7.20
2023-04-16T22:51:27.155Z,7.77
2023-04-16T22:53:55.356Z,7.30
2023-04-16T22:56:28.740Z,7.57
2023-04-16T22:58:58.282Z,7.80
2023-04-16T23:01:26.638Z,8.27
2023-04-16T23:03:54.932Z,7.67
2023-04-16T23:06:23.169Z,7.50
2023-04-16T23:08:51.329Z,7.70
2023-04-16T23:11:19.731Z,7.27
2023-04-16T23:13:47.983Z,8.03
2023-04-16T23:16:17.576Z,7.67
2023-04-16T23:18:45.590Z,8.30
2023-04-16T23:21:13.797Z,8.17
2023-04-16T23:23:42.145Z,7.60
2023-04-16T23:26:10.239Z,8.30
2023-04-16T23:28:38.256Z,7.77
2023-04-16T23:31:07.365Z,8.70
2023-04-16T23:33:37.825Z,8.23
2023-04-16T23:36:06.974Z,7.67
2023-04-16T23:38:35.237Z,8.33
2023-04-16T23:41:04.571Z,8.50
2023-04-16T23:43:34.806Z,8.27
2023-04-16T23:46:03.228Z,7.93
2023-04-16T23:48:31.462Z,8.13
2023-04-16T23:51:00.953Z,8.50
2023-04-16T23:53:29.146Z,8.07
2023-04-16T23:55:57.206Z,7.43
2023-04-16T23:58:26.827Z,8.03
